Terminal Aerodrome Forecast
Issued by NWS Bismarck, ND

Home | Current Version | Previous Version | Text Only | Print | Product List | Glossary Off
Versions: 1 2 3 4 5 6 7 8 9 10 11 12 13 14 15 16 17 18 19 20 21 22 23 24

680
FTUS43 KBIS 172335
TAFBIS
TAF
KBIS 172335Z 1800/1824 10016KT P6SM BKN110
     FM180300 08007KT P6SM VCSH OVC045
     FM180700 VRB04KT P6SM -SN OVC030
     FM180800 VRB04KT 4SM -SN OVC015
     FM181100 36004KT P6SM OVC008
     FM181700 34007KT P6SM OVC015
     FM181900 35009KT P6SM OVC020
     FM182100 35010KT P6SM BKN040=

USA.gov is the U.S. government's official web portal to all federal, state and local government web resources and services.